Time;durP1;ratioP1;P1;durP2;ratioP2;P2;SDS_P1;SDS_P2;PMS_P1;PMS_P2;Temp;Humidity;BMP_temperature;BMP_pressure;BME280_temperature;BME280_humidity;BME280_pressure;Samples;Min_cycle;Max_cycle;Signal;HPM_P1;HPM_P2
2022/04/16 00:02:19;;;;;;;28.70;15.70;;;;;;;7.50;100.00;102644.34;5067732;28;20481;-75
2022/04/16 00:04:47;;;;;;;26.60;15.60;;;;;;;7.46;100.00;102646.94;5068765;28;20056;-73
2022/04/16 00:07:13;;;;;;;30.08;15.23;;;;;;;7.44;100.00;102640.16;5068742;28;20174;-75
2022/04/16 00:09:41;;;;;;;27.40;16.30;;;;;;;7.43;100.00;102646.81;5069695;28;20139;-74
2022/04/16 00:12:09;;;;;;;28.00;16.20;;;;;;;7.36;100.00;102643.78;5067590;28;20469;-76
2022/04/16 00:14:38;;;;;;;27.13;15.57;;;;;;;7.31;100.00;102646.69;5067593;28;20066;-74
2022/04/16 00:17:05;;;;;;;27.25;13.57;;;;;;;7.28;100.00;102645.41;5068755;28;20059;-74
2022/04/16 00:19:32;;;;;;;27.50;15.68;;;;;;;7.17;100.00;102638.63;5067995;28;20501;-74
2022/04/16 00:22:00;;;;;;;28.13;15.38;;;;;;;7.12;100.00;102636.03;5067497;28;20109;-73
2022/04/16 00:24:29;;;;;;;26.52;14.82;;;;;;;7.12;100.00;102633.28;5067423;28;20105;-75
2022/04/16 00:26:56;;;;;;;25.92;14.80;;;;;;;7.09;100.00;102633.16;5064086;28;20644;-75
2022/04/16 00:29:23;;;;;;;29.05;16.80;;;;;;;7.12;100.00;102644.31;5060389;28;20147;-74
2022/04/16 00:31:50;;;;;;;31.58;16.20;;;;;;;7.13;100.00;102643.16;5061304;28;20136;-76
2022/04/16 00:34:17;;;;;;;27.63;15.35;;;;;;;7.07;100.00;102632.66;5065459;28;20528;-74
2022/04/16 00:36:44;;;;;;;28.85;15.82;;;;;;;7.03;100.00;102639.97;5066252;28;20135;-74
2022/04/16 00:39:11;;;;;;;28.73;14.77;;;;;;;6.96;100.00;102629.44;5061545;28;20159;-74
2022/04/16 00:41:39;;;;;;;27.35;15.70;;;;;;;6.93;100.00;102638.38;5065149;28;20044;-74
2022/04/16 00:44:06;;;;;;;32.25;16.38;;;;;;;6.90;100.00;102641.78;5059340;28;20531;-74
2022/04/16 00:46:33;;;;;;;30.00;16.38;;;;;;;6.85;100.00;102633.66;5047733;28;20053;-74
2022/04/16 00:49:00;;;;;;;30.23;16.20;;;;;;;6.85;100.00;102641.94;5048428;28;20444;-75
2022/04/16 00:51:28;;;;;;;34.83;17.27;;;;;;;6.86;100.00;102640.00;5047768;28;20041;-75
2022/04/16 00:53:55;;;;;;;26.75;15.68;;;;;;;6.82;100.00;102642.56;5067824;28;20091;-74
2022/04/16 00:56:22;;;;;;;31.30;17.52;;;;;;;6.85;100.00;102633.66;5068232;28;20151;-74
2022/04/16 00:58:48;;;;;;;31.20;18.15;;;;;;;6.90;100.00;102635.44;5066918;28;20047;-76
2022/04/16 01:01:15;;;;;;;30.90;17.15;;;;;;;6.93;100.00;102635.63;5058151;28;20051;-74
2022/04/16 01:03:44;;;;;;;30.38;17.08;;;;;;;6.96;100.00;102640.44;5070482;28;20056;-74
2022/04/16 01:06:15;;;;;;;30.77;17.00;;;;;;;6.98;100.00;102649.19;5066233;28;20131;-75
2022/04/16 01:08:44;;;;;;;30.80;17.10;;;;;;;7.00;100.00;102646.13;5072629;28;20052;-74
2022/04/16 01:11:15;;;;;;;27.95;16.00;;;;;;;7.01;100.00;102645.78;5057135;28;20163;-75
2022/04/16 01:13:46;;;;;;;30.92;17.48;;;;;;;7.01;100.00;102642.22;5067770;28;20048;-75
2022/04/16 01:16:12;;;;;;;27.65;15.25;;;;;;;6.96;100.00;102645.16;5068382;28;20099;-74
2022/04/16 01:18:46;;;;;;;27.67;16.65;;;;;;;6.94;100.00;102644.66;5099928;28;20053;-74
2022/04/16 01:21:17;;;;;;;30.10;17.10;;;;;;;6.85;100.00;102641.94;5060424;28;20041;-73
2022/04/16 01:23:43;;;;;;;29.05;17.17;;;;;;;6.82;100.00;102644.53;5067281;28;20048;-76
2022/04/16 01:26:10;;;;;;;32.35;18.00;;;;;;;6.84;100.00;102651.31;5068156;28;20171;-75
2022/04/16 01:28:36;;;;;;;30.13;17.10;;;;;;;6.82;100.00;102648.06;5054101;28;20075;-74
2022/04/16 01:31:03;;;;;;;33.65;19.45;;;;;;;6.84;100.00;102651.31;5060603;28;20135;-75
2022/04/16 01:33:30;;;;;;;30.80;17.70;;;;;;;6.83;100.00;102657.16;5063106;28;20118;-75
2022/04/16 01:35:56;;;;;;;33.83;18.17;;;;;;;6.85;100.00;102652.16;5062518;28;20052;-75
2022/04/16 01:38:26;;;;;;;31.13;17.67;;;;;;;6.87;100.00;102655.38;5066916;28;20049;-74
2022/04/16 01:40:57;;;;;;;31.17;17.15;;;;;;;6.90;100.00;102650.03;5063705;28;20037;-74
2022/04/16 01:43:24;;;;;;;28.50;17.45;;;;;;;6.89;100.00;102655.84;5061479;28;20169;-74
2022/04/16 01:45:51;;;;;;;33.53;18.08;;;;;;;6.91;100.00;102664.56;5059908;28;20682;-74
2022/04/16 01:48:18;;;;;;;29.08;16.70;;;;;;;6.85;100.00;102663.94;5060679;28;20131;-74
2022/04/16 01:50:51;;;;;;;34.22;16.55;;;;;;;6.82;100.00;102659.09;5053297;28;20048;-74
2022/04/16 01:53:18;;;;;;;29.75;17.67;;;;;;;6.81;100.00;102660.22;5066449;28;20155;-74
2022/04/16 01:55:44;;;;;;;29.00;16.52;;;;;;;6.80;100.00;102663.31;5071098;28;20040;-74
2022/04/16 01:58:11;;;;;;;30.55;16.27;;;;;;;6.79;100.00;102653.44;5069901;28;20145;-74
2022/04/16 02:00:39;;;;;;;33.55;16.73;;;;;;;6.80;100.00;102660.56;5071009;28;20385;-75
2022/04/16 02:03:08;;;;;;;28.42;16.17;;;;;;;6.77;100.00;102648.25;5056823;28;20094;-75
2022/04/16 02:05:35;;;;;;;31.95;16.38;;;;;;;6.83;100.00;102662.66;5068481;28;20099;-75
2022/04/16 02:08:01;;;;;;;27.13;16.27;;;;;;;6.80;100.00;102661.38;5074078;28;20139;-76
2022/04/16 02:10:28;;;;;;;34.88;16.83;;;;;;;6.79;100.00;102668.00;5071153;28;20072;-74
2022/04/16 02:12:55;;;;;;;30.77;16.75;;;;;;;6.79;100.00;102672.69;5069948;28;20055;-75
2022/04/16 02:15:21;;;;;;;26.30;15.13;;;;;;;6.77;100.00;102669.44;5070661;28;20098;-75
2022/04/16 02:17:48;;;;;;;28.65;16.73;;;;;;;6.79;100.00;102678.19;5069210;28;20135;-74
2022/04/16 02:20:14;;;;;;;28.45;16.45;;;;;;;6.72;100.00;102672.38;5064112;28;20123;-74
2022/04/16 02:22:48;;;;;;;29.13;14.82;;;;;;;6.66;100.00;102673.66;5069605;28;20049;-76
2022/04/16 02:25:17;;;;;;;29.02;16.95;;;;;;;6.64;100.00;102684.19;5071271;28;20484;-75
2022/04/16 02:27:43;;;;;;;28.23;16.40;;;;;;;6.62;100.00;102672.69;5059025;28;20409;-75
2022/04/16 02:30:12;;;;;;;31.77;17.00;;;;;;;6.62;100.00;102672.69;5063790;28;20105;-75
2022/04/16 02:32:41;;;;;;;32.17;17.08;;;;;;;6.59;100.00;102681.59;5067001;28;20076;-74
2022/04/16 02:35:08;;;;;;;30.70;16.45;;;;;;;6.56;100.00;102674.00;5064805;28;20420;-73
2022/04/16 02:37:35;;;;;;;31.55;17.13;;;;;;;6.55;100.00;102677.88;5067950;28;20057;-75
2022/04/16 02:40:03;;;;;;;32.47;17.50;;;;;;;6.53;100.00;102683.72;5069164;28;20157;-75
2022/04/16 02:42:33;;;;;;;33.85;18.52;;;;;;;6.53;100.00;102685.63;5062355;28;20508;-74
2022/04/16 02:47:44;;;;;;;30.13;16.60;;;;;;;6.51;100.00;102698.91;5061146;28;20060;-74
2022/04/16 02:50:12;;;;;;;30.05;16.90;;;;;;;6.48;100.00;102697.59;5067819;28;21192;-74
2022/04/16 02:52:39;;;;;;;27.95;15.50;;;;;;;6.47;100.00;102698.75;5065162;28;20059;-74
2022/04/16 02:55:05;;;;;;;29.48;16.98;;;;;;;6.44;100.00;102698.56;5068959;28;20045;-73
2022/04/16 02:57:32;;;;;;;34.45;17.33;;;;;;;6.45;100.00;102701.00;5068398;28;20049;-75
2022/04/16 02:59:59;;;;;;;30.05;17.90;;;;;;;6.42;100.00;102704.41;5054995;28;20053;-74
2022/04/16 03:02:33;;;;;;;32.83;17.23;;;;;;;6.40;100.00;102709.41;5067639;28;20056;-74
2022/04/16 03:04:59;;;;;;;32.85;17.50;;;;;;;6.37;100.00;102710.03;5069265;28;20036;-74
2022/04/16 03:07:26;;;;;;;34.90;18.42;;;;;;;6.36;100.00;102713.13;5072249;28;20063;-74
2022/04/16 03:09:52;;;;;;;32.17;17.67;;;;;;;6.34;100.00;102718.94;5070417;28;20131;-76
2022/04/16 03:12:18;;;;;;;31.88;16.70;;;;;;;6.35;100.00;102717.00;5067011;28;20654;-74
2022/04/16 03:17:33;;;;;;;32.83;18.40;;;;;;;6.35;100.00;102711.50;5068159;28;20165;-74
2022/04/16 03:20:04;;;;;;;33.72;19.02;;;;;;;6.31;100.00;102707.78;5060816;28;20048;-74
2022/04/16 03:22:34;;;;;;;34.22;19.13;;;;;;;6.34;100.00;102709.91;5068239;28;20044;-76
2022/04/16 03:25:04;;;;;;;35.90;19.00;;;;;;;6.28;100.00;102705.66;5069548;28;20053;-74
2022/04/16 03:27:30;;;;;;;33.95;19.63;;;;;;;6.25;100.00;102704.38;5060590;28;20537;-76
2022/04/16 03:29:57;;;;;;;37.65;19.40;;;;;;;6.23;100.00;102703.06;5061658;28;20637;-74
2022/04/16 03:32:24;;;;;;;34.53;19.05;;;;;;;6.22;100.00;102713.25;5063979;28;20139;-74
2022/04/16 03:34:50;;;;;;;34.70;19.27;;;;;;;6.13;100.00;102717.09;5050189;28;20053;-74
2022/04/16 03:37:17;;;;;;;32.95;19.67;;;;;;;6.11;100.00;102711.13;5066330;28;20044;-74
2022/04/16 03:39:44;;;;;;;35.10;19.52;;;;;;;6.07;100.00;102710.16;5068475;28;20063;-75
2022/04/16 03:42:11;;;;;;;34.13;19.63;;;;;;;6.03;100.00;102709.16;5057018;28;20048;-74
2022/04/16 03:44:37;;;;;;;36.67;19.95;;;;;;;6.07;100.00;102713.69;5069340;28;20052;-75
2022/04/16 03:47:04;;;;;;;33.63;19.25;;;;;;;6.11;100.00;102716.63;5067813;28;20131;-75
2022/04/16 03:49:31;;;;;;;35.38;19.48;;;;;;;6.20;100.00;102718.25;5056225;28;20053;-74
2022/04/16 03:51:57;;;;;;;35.22;19.65;;;;;;;6.23;100.00;102719.56;5067316;28;20080;-76
2022/04/16 03:59:59;;;;;;;38.10;20.80;;;;;;;6.36;100.00;102735.13;5059615;28;20057;-75
2022/04/16 04:02:28;;;;;;;37.47;20.48;;;;;;;6.43;100.00;102743.69;5068289;28;20047;-74
2022/04/16 04:04:56;;;;;;;37.83;20.90;;;;;;;6.51;100.00;102740.97;5068152;28;20064;-75
2022/04/16 04:07:23;;;;;;;41.25;21.27;;;;;;;6.65;100.00;102738.09;5070733;28;20056;-76
2022/04/16 04:09:50;;;;;;;37.00;21.10;;;;;;;6.73;100.00;102731.78;5069686;28;20455;-75
2022/04/16 04:12:16;;;;;;;38.92;22.73;;;;;;;6.79;100.00;102733.22;5067818;28;20046;-75
2022/04/16 04:14:46;;;;;;;37.53;21.38;;;;;;;6.87;100.00;102737.91;5068701;28;20071;-74
2022/04/16 04:17:14;;;;;;;43.83;23.38;;;;;;;6.94;100.00;102741.00;5067485;28;20047;-74
2022/04/16 04:19:43;;;;;;;40.55;22.98;;;;;;;7.03;100.00;102739.06;5064257;28;20445;-74
2022/04/16 04:22:11;;;;;;;37.20;21.88;;;;;;;7.09;100.00;102741.31;5067895;28;20038;-74
2022/04/16 04:24:40;;;;;;;41.60;22.35;;;;;;;7.18;100.00;102750.38;5058146;28;20055;-75
2022/04/16 04:27:08;;;;;;;47.45;22.80;;;;;;;7.21;100.00;102749.72;5056781;28;20140;-76
2022/04/16 04:29:35;;;;;;;46.88;23.58;;;;;;;7.25;100.00;102749.88;5065026;28;20036;-76
2022/04/16 04:32:03;;;;;;;47.00;25.30;;;;;;;7.27;100.00;102747.63;5067391;28;20040;-73
2022/04/16 04:34:29;;;;;;;45.72;23.77;;;;;;;7.28;100.00;102754.72;5064763;28;20041;-73
2022/04/16 04:36:56;;;;;;;48.35;23.45;;;;;;;7.27;100.00;102755.88;5066257;28;20040;-74
2022/04/16 04:39:24;;;;;;;42.40;22.25;;;;;;;7.18;100.00;102753.13;5061040;28;20493;-73
2022/04/16 04:41:51;;;;;;;43.75;22.67;;;;;;;7.25;100.00;102766.41;5066682;28;20128;-73
2022/04/16 04:44:18;;;;;;;48.72;23.30;;;;;;;7.29;100.00;102773.69;5058628;28;20055;-75
2022/04/16 04:46:51;;;;;;;52.38;25.30;;;;;;;7.30;100.00;102772.53;5049420;28;21504;-76
2022/04/16 04:49:17;;;;;;;44.45;23.35;;;;;;;7.33;100.00;102777.41;5048773;28;20556;-74
2022/04/16 04:51:44;;;;;;;42.45;22.63;;;;;;;7.37;100.00;102783.09;5064304;28;20049;-74
2022/04/16 04:54:11;;;;;;;46.22;26.02;;;;;;;7.41;100.00;102784.03;5066757;28;20127;-73
2022/04/16 04:56:37;;;;;;;45.28;25.13;;;;;;;7.46;100.00;102786.66;5067666;28;20496;-75
2022/04/16 04:59:04;;;;;;;49.65;24.92;;;;;;;7.53;100.00;102790.50;5065053;28;20056;-73
2022/04/16 05:01:30;;;;;;;45.20;25.58;;;;;;;7.58;100.00;102795.03;5067046;28;20841;-74
2022/04/16 05:03:57;;;;;;;50.03;26.40;;;;;;;7.60;100.00;102790.00;5069423;28;20661;-74
2022/04/16 05:06:23;;;;;;;50.72;26.08;;;;;;;7.58;100.00;102790.34;5068089;28;20052;-74
2022/04/16 05:08:51;;;;;;;52.40;25.70;;;;;;;7.64;100.00;102805.56;5072255;28;20139;-75
2022/04/16 05:11:18;;;;;;;49.20;25.58;;;;;;;7.65;100.00;102807.19;5060434;28;20128;-74
2022/04/16 05:13:45;;;;;;;53.03;25.88;;;;;;;7.64;100.00;102811.09;5065920;28;20058;-73
2022/04/16 05:16:14;;;;;;;47.55;25.58;;;;;;;7.66;100.00;102814.31;5065528;28;20094;-75
2022/04/16 05:18:41;;;;;;;50.92;26.70;;;;;;;7.65;100.00;102811.88;5065778;28;20777;-74
2022/04/16 05:21:08;;;;;;;51.35;26.13;;;;;;;7.68;100.00;102822.25;5067221;28;20501;-77
2022/04/16 05:23:39;;;;;;;49.25;24.95;;;;;;;7.70;100.00;102819.97;5064777;28;20056;-75
2022/04/16 05:26:10;;;;;;;50.55;25.17;;;;;;;7.71;100.00;102813.31;5068268;28;20091;-74
2022/04/16 05:28:38;;;;;;;52.38;25.83;;;;;;;7.74;100.00;102818.97;5065682;28;20048;-75
2022/04/16 05:31:06;;;;;;;48.35;25.02;;;;;;;7.78;100.00;102824.66;5058608;28;20048;-74
2022/04/16 05:36:18;;;;;;;51.05;25.58;;;;;;;7.83;100.00;102821.72;5065571;28;20045;-74
2022/04/16 05:38:45;;;;;;;44.10;20.88;;;;;;;7.87;100.00;102817.19;5070757;28;20155;-74
2022/04/16 05:41:11;;;;;;;49.55;26.40;;;;;;;7.92;100.00;102833.53;5062945;28;20135;-74
2022/04/16 05:43:38;;;;;;;56.90;26.25;;;;;;;7.92;100.00;102826.09;5058314;28;20102;-74
2022/04/16 05:46:04;;;;;;;49.00;22.50;;;;;;;7.99;100.00;102828.31;5070254;28;20079;-77
2022/04/16 05:48:31;;;;;;;47.75;24.90;;;;;;;8.03;100.00;102827.34;5068290;28;20493;-75
2022/04/16 05:50:58;;;;;;;62.38;30.52;;;;;;;8.11;100.00;102836.72;5068626;28;20587;-74
2022/04/16 05:53:25;;;;;;;52.47;23.13;;;;;;;8.17;100.00;102845.63;5066112;28;20052;-77
2022/04/16 05:55:52;;;;;;;32.55;16.17;;;;;;;8.20;100.00;102831.97;5073275;28;20062;-74
2022/04/16 05:58:18;;;;;;;46.13;22.33;;;;;;;8.27;100.00;102843.34;5076843;28;20041;-74
2022/04/16 06:00:45;;;;;;;45.95;22.15;;;;;;;8.32;100.00;102843.16;5068569;28;20056;-75
2022/04/16 06:03:17;;;;;;;46.72;22.75;;;;;;;8.41;100.00;102849.47;5055650;28;20048;-76
2022/04/16 06:05:44;;;;;;;46.10;22.45;;;;;;;8.46;100.00;102849.25;5068573;28;20131;-75
2022/04/16 06:08:10;;;;;;;42.80;21.48;;;;;;;8.53;100.00;102846.78;5071881;28;20237;-75
2022/04/16 06:10:37;;;;;;;40.97;19.08;;;;;;;8.60;100.00;102847.09;5069075;28;20062;-75
2022/04/16 06:13:09;;;;;;;45.08;23.17;;;;;;;8.63;100.00;102862.16;5066741;28;20044;-76
2022/04/16 06:15:39;;;;;;;41.58;22.63;;;;;;;8.68;100.00;102857.28;5056281;28;20107;-77
2022/04/16 06:18:05;;;;;;;45.38;22.35;;;;;;;8.75;100.00;102856.75;5058727;28;20048;-79
2022/04/16 06:20:32;;;;;;;47.42;21.42;;;;;;;8.84;100.00;102865.81;5066454;28;20045;-76
2022/04/16 06:22:58;;;;;;;46.28;22.70;;;;;;;8.86;100.00;102864.31;5065312;28;20051;-80
2022/04/16 06:25:25;;;;;;;42.30;19.52;;;;;;;8.95;100.00;102867.84;5069583;28;20120;-77
2022/04/16 06:27:51;;;;;;;39.03;20.73;;;;;;;9.01;100.00;102863.72;5057752;28;20048;-76
2022/04/16 06:30:18;;;;;;;44.90;22.67;;;;;;;9.07;100.00;102875.38;5065470;28;20059;-75
2022/04/16 06:32:44;;;;;;;42.38;21.00;;;;;;;9.10;100.00;102864.47;5063837;28;20408;-76
2022/04/16 06:35:12;;;;;;;42.95;20.77;;;;;;;9.18;100.00;102866.34;5069809;28;20952;-75
2022/04/16 06:37:44;;;;;;;42.45;20.95;;;;;;;9.23;100.00;102868.94;5068112;28;20049;-76
2022/04/16 06:40:11;;;;;;;42.65;21.17;;;;;;;9.30;100.00;102876.69;5065813;28;20048;-78
2022/04/16 06:42:38;;;;;;;30.35;15.02;;;;;;;9.36;100.00;102867.88;5069807;28;20062;-75
2022/04/16 06:45:06;;;;;;;37.45;19.75;;;;;;;9.43;100.00;102868.13;5061762;28;20057;-80
2022/04/16 06:47:33;;;;;;;40.15;19.23;;;;;;;9.50;100.00;102867.56;5056254;28;20055;-76
2022/04/16 06:50:01;;;;;;;23.48;11.07;;;;;;;9.56;100.00;102882.81;5066190;28;20057;-76
2022/04/16 06:52:27;;;;;;;34.72;16.27;;;;;;;9.63;100.00;102878.38;5067925;28;20390;-76
2022/04/16 06:54:57;;;;;;;38.25;18.58;;;;;;;9.68;100.00;102875.38;5070470;28;20505;-75
2022/04/16 06:57:24;;;;;;;31.20;14.82;;;;;;;9.75;100.00;102870.09;5073668;28;20079;-78
2022/04/16 06:59:51;;;;;;;38.17;18.20;;;;;;;9.86;100.00;102876.03;5070274;28;20048;-75
2022/04/16 07:02:18;;;;;;;34.13;16.48;;;;;;;9.91;100.00;102878.56;5061696;28;20137;-75
2022/04/16 07:04:45;;;;;;;34.05;17.13;;;;;;;9.96;100.00;102876.38;5073220;28;20054;-78
2022/04/16 07:07:11;;;;;;;35.05;18.48;;;;;;;10.00;100.00;102877.31;5067911;28;20581;-74
2022/04/16 07:09:38;;;;;;;31.60;14.57;;;;;;;10.08;100.00;102887.53;5072964;28;20055;-75
2022/04/16 07:12:10;;;;;;;24.20;12.25;;;;;;;10.11;100.00;102878.56;5069198;28;20052;-80
2022/04/16 07:14:38;;;;;;;30.83;15.75;;;;;;;10.20;100.00;102881.22;5057780;28;20139;-75
2022/04/16 07:17:05;;;;;;;13.45;6.75;;;;;;;10.23;100.00;102875.78;5062088;28;20055;-79
2022/04/16 07:19:32;;;;;;;34.03;17.55;;;;;;;10.34;100.00;102885.28;5066158;28;20044;-75
2022/04/16 07:22:00;;;;;;;32.28;16.90;;;;;;;10.40;100.00;102874.81;5077078;28;20044;-75
2022/04/16 07:24:27;;;;;;;32.45;16.80;;;;;;;10.46;100.00;102876.97;5067473;28;20056;-78
2022/04/16 07:26:54;;;;;;;33.03;15.82;;;;;;;10.59;100.00;102877.00;5076775;28;20143;-75
2022/04/16 07:29:22;;;;;;;36.63;19.40;;;;;;;10.61;100.00;102863.59;5075118;28;20044;-76
2022/04/16 07:31:49;;;;;;;34.15;16.85;;;;;;;10.69;100.00;102865.47;5067531;28;20045;-78
2022/04/16 07:34:16;;;;;;;33.17;16.67;;;;;;;10.79;100.00;102864.97;5068700;28;20055;-77
2022/04/16 07:36:44;;;;;;;34.30;16.95;;;;;;;10.90;100.00;102872.47;5072668;28;20052;-77
2022/04/16 07:39:13;;;;;;;45.30;17.60;;;;;;;10.99;100.00;102873.16;5065415;28;20052;-74
2022/04/16 07:41:40;;;;;;;33.58;16.83;;;;;;;11.11;100.00;102869.56;5064891;28;20053;-75
2022/04/16 07:44:06;;;;;;;39.75;18.85;;;;;;;11.23;100.00;102881.44;5072956;28;20139;-76
2022/04/16 07:46:34;;;;;;;35.75;16.33;;;;;;;11.30;100.00;102870.56;5056540;28;20044;-75
2022/04/16 07:49:02;;;;;;;38.03;15.98;;;;;;;11.40;100.00;102877.56;5055897;28;20048;-75
2022/04/16 07:51:29;;;;;;;32.95;16.67;;;;;;;11.44;100.00;102884.84;5066087;28;20052;-75
2022/04/16 07:53:57;;;;;;;31.20;17.02;;;;;;;11.55;100.00;102876.84;5064625;28;20488;-74
2022/04/16 07:56:24;;;;;;;34.20;16.65;;;;;;;11.70;100.00;102887.19;5064014;28;20662;-74
2022/04/16 07:58:51;;;;;;;33.13;15.88;;;;;;;11.85;100.00;102887.25;5063175;28;20048;-75
2022/04/16 08:01:17;;;;;;;26.70;11.57;;;;;;;12.00;100.00;102880.94;5072714;28;20126;-75
2022/04/16 08:03:44;;;;;;;34.35;16.95;;;;;;;12.07;100.00;102872.00;5058606;28;20067;-77
2022/04/16 08:06:11;;;;;;;32.97;15.38;;;;;;;12.18;100.00;102868.34;5068807;28;20123;-75
2022/04/16 08:08:38;;;;;;;29.92;15.48;;;;;;;12.19;100.00;102878.28;5067823;28;20098;-75
2022/04/16 08:11:04;;;;;;;29.73;14.40;;;;;;;12.22;99.44;102871.22;5067004;28;20456;-76
2022/04/16 08:13:31;;;;;;;30.42;15.20;;;;;;;12.27;98.99;102888.41;5063951;28;20118;-75
2022/04/16 08:15:58;;;;;;;36.47;17.77;;;;;;;12.30;98.87;102892.44;5071258;28;20095;-75
2022/04/16 08:18:25;;;;;;;15.45;5.60;;;;;;;12.33;96.96;102897.28;5068848;28;20114;-76
2022/04/16 08:20:51;;;;;;;33.45;17.52;;;;;;;12.47;97.56;102897.66;5067777;28;20091;-76
2022/04/16 08:23:18;;;;;;;35.78;17.63;;;;;;;12.55;96.38;102894.69;5066868;28;20048;-75
2022/04/16 08:25:44;;;;;;;30.67;15.77;;;;;;;12.58;94.55;102887.63;5058848;28;20068;-77
2022/04/16 08:28:11;;;;;;;30.98;13.13;;;;;;;12.51;92.91;102884.66;5057236;28;20521;-78
2022/04/16 08:30:38;;;;;;;31.33;16.00;;;;;;;12.74;94.83;102886.47;5058634;28;20110;-77
2022/04/16 08:33:05;;;;;;;29.73;14.52;;;;;;;12.88;92.93;102888.75;5064440;28;20516;-75
2022/04/16 08:35:32;;;;;;;27.45;14.93;;;;;;;12.94;89.61;102890.09;5066261;28;20127;-77
2022/04/16 08:37:58;;;;;;;28.52;14.02;;;;;;;13.01;89.03;102887.50;5066640;28;20052;-76
2022/04/16 08:40:24;;;;;;;27.38;14.05;;;;;;;13.15;88.92;102893.41;5068713;28;20135;-68
2022/04/16 08:42:52;;;;;;;28.15;13.57;;;;;;;13.21;86.99;102905.84;5065707;28;20785;-74
2022/04/16 08:45:19;;;;;;;24.70;10.77;;;;;;;13.17;83.55;102899.41;5058381;28;20131;-73
2022/04/16 08:47:45;;;;;;;25.20;13.57;;;;;;;13.26;83.82;102902.00;5066950;28;20223;-73
2022/04/16 08:50:13;;;;;;;26.52;12.57;;;;;;;13.30;84.64;102887.00;5067252;28;20074;-74
2022/04/16 08:52:40;;;;;;;24.80;11.38;;;;;;;13.36;82.57;102902.22;5067945;28;20076;-74
2022/04/16 08:55:11;;;;;;;28.42;10.55;;;;;;;13.43;80.26;102893.22;5067140;28;20500;-76
2022/04/16 08:57:39;;;;;;;20.35;10.48;;;;;;;13.44;76.84;102900.41;5068510;28;20056;-73
2022/04/16 09:00:07;;;;;;;24.52;11.32;;;;;;;13.52;76.12;102900.19;5068579;28;20143;-75
2022/04/16 09:02:34;;;;;;;22.60;11.15;;;;;;;13.63;76.55;102905.97;5056540;28;20125;-75
2022/04/16 09:05:07;;;;;;;22.38;11.40;;;;;;;13.81;75.42;102905.19;5072139;28;20135;-74
2022/04/16 09:07:51;;;;;;;24.70;11.38;;;;;;;13.94;73.06;102901.03;5072096;28;20056;-74
2022/04/16 09:10:17;;;;;;;18.17;7.03;;;;;;;14.08;71.37;102897.75;5054547;28;20079;-75
2022/04/16 09:12:45;;;;;;;23.40;11.20;;;;;;;14.23;72.04;102906.03;5060125;28;20119;-74
2022/04/16 09:15:13;;;;;;;23.00;11.82;;;;;;;14.25;68.63;102903.69;5067342;28;20068;-74
2022/04/16 09:17:41;;;;;;;10.43;4.38;;;;;;;14.32;66.51;102901.03;5068550;28;20456;-74
2022/04/16 09:20:12;;;;;;;21.02;10.82;;;;;;;14.42;66.66;102894.84;5104042;28;20055;-74
2022/04/16 09:22:40;;;;;;;22.52;11.13;;;;;;;14.44;68.09;102908.38;5066233;28;20461;-74
2022/04/16 09:25:19;;;;;;;20.23;10.32;;;;;;;14.41;65.09;102904.34;5068179;28;20051;-74
2022/04/16 09:27:49;;;;;;;22.58;11.43;;;;;;;14.55;67.08;102906.59;5067813;28;20078;-74
2022/04/16 09:30:28;;;;;;;23.10;12.23;;;;;;;14.70;67.30;102900.06;5059204;28;20127;-75
2022/04/16 09:32:56;;;;;;;19.73;9.45;;;;;;;14.89;65.13;102906.34;5057555;28;20053;-77
2022/04/16 09:35:33;;;;;;;19.92;9.77;;;;;;;14.89;60.88;102903.56;5062526;28;20044;-75
2022/04/16 09:38:12;;;;;;;21.02;10.82;;;;;;;14.89;61.32;102916.72;5055303;28;20041;-74
2022/04/16 09:40:38;;;;;;;25.02;12.80;;;;;;;14.87;62.56;102908.72;5062354;28;20518;-75
2022/04/16 09:43:06;;;;;;;19.63;9.38;;;;;;;14.85;60.72;102913.88;5059610;28;20080;-77
2022/04/16 09:45:37;;;;;;;20.67;10.30;;;;;;;14.89;61.64;102911.94;5061552;28;20047;-76
2022/04/16 09:48:10;;;;;;;18.85;9.73;;;;;;;15.03;61.32;102914.16;5059712;28;20447;-75
2022/04/16 09:50:38;;;;;;;18.65;9.35;;;;;;;15.05;59.74;102917.34;5047784;28;20111;-75
2022/04/16 09:53:06;;;;;;;25.20;12.00;;;;;;;15.13;60.80;102913.50;5061506;28;20127;-75
2022/04/16 09:55:35;;;;;;;21.38;9.80;;;;;;;15.30;60.20;102907.38;5067464;28;20272;-74
2022/04/16 09:58:04;;;;;;;25.42;13.27;;;;;;;15.28;58.97;102918.91;5086233;28;20129;-77
2022/04/16 10:00:33;;;;;;;19.10;9.40;;;;;;;15.19;59.02;102912.00;5052433;28;20076;-75
2022/04/16 10:03:20;;;;;;;22.80;11.27;;;;;;;15.32;59.71;102911.41;5063426;28;20044;-74
2022/04/16 10:05:47;;;;;;;20.00;10.02;;;;;;;15.43;60.38;102923.53;5063464;28;20143;-75
2022/04/16 10:08:14;;;;;;;19.33;11.43;;;;;;;15.52;58.09;102912.09;5076640;28;20078;-76
2022/04/16 10:10:46;;;;;;;15.63;7.47;;;;;;;15.52;58.09;102918.50;5067572;28;20094;-75
2022/04/16 10:13:15;;;;;;;20.50;9.52;;;;;;;15.52;56.02;102923.25;5062696;28;20056;-75
2022/04/16 10:15:44;;;;;;;21.08;11.00;;;;;;;15.56;56.14;102917.72;5066425;28;20398;-74
2022/04/16 10:18:12;;;;;;;18.70;9.52;;;;;;;15.60;55.56;102913.81;5071190;28;20057;-74
2022/04/16 10:20:53;;;;;;;16.48;6.95;;;;;;;15.70;53.92;102915.13;5088605;28;20083;-75
2022/04/16 10:23:37;;;;;;;17.67;8.45;;;;;;;15.83;54.04;102913.69;5062357;28;20599;-75
2022/04/16 10:26:09;;;;;;;22.63;10.98;;;;;;;15.82;54.02;102898.13;5070797;28;20052;-74
2022/04/16 10:28:55;;;;;;;26.88;13.32;;;;;;;15.91;55.85;102904.19;5070880;28;20501;-76
2022/04/16 10:31:33;;;;;;;16.67;8.13;;;;;;;16.11;52.95;102909.25;5066811;28;20552;-74
2022/04/16 10:34:05;;;;;;;19.67;10.80;;;;;;;16.18;52.75;102900.94;5069668;28;20044;-75
2022/04/16 10:36:37;;;;;;;19.25;10.45;;;;;;;16.24;51.33;102898.59;5070463;28;20127;-74
2022/04/16 10:39:24;;;;;;;21.90;9.75;;;;;;;16.29;51.00;102901.03;5069880;28;20057;-73
2022/04/16 10:41:58;;;;;;;19.02;9.55;;;;;;;16.46;51.04;102904.03;5071643;28;20056;-76
2022/04/16 10:44:26;;;;;;;17.70;9.27;;;;;;;16.45;50.96;102887.66;5070447;28;20060;-73
2022/04/16 10:46:54;;;;;;;19.85;9.77;;;;;;;16.54;50.32;102893.72;5070805;28;20116;-73
2022/04/16 10:49:27;;;;;;;21.27;9.57;;;;;;;17.28;48.61;102898.66;5061378;28;20057;-73
2022/04/16 10:51:55;;;;;;;16.20;8.10;;;;;;;17.09;46.59;102892.53;5069372;28;20052;-73
2022/04/16 10:54:34;;;;;;;11.13;4.65;;;;;;;16.94;47.39;102883.25;5069814;28;20044;-74
2022/04/16 10:57:03;;;;;;;14.65;4.93;;;;;;;17.01;47.54;102885.31;5064918;28;20052;-76
2022/04/16 10:59:45;;;;;;;18.48;8.40;;;;;;;17.14;45.88;102886.56;5069615;28;20131;-75
2022/04/16 11:02:19;;;;;;;15.32;7.45;;;;;;;17.27;46.41;102877.47;5071666;28;20080;-75
2022/04/16 11:04:55;;;;;;;17.77;9.05;;;;;;;17.38;45.73;102888.75;5069834;28;20063;-74
2022/04/16 11:07:23;;;;;;;16.65;7.55;;;;;;;17.38;45.03;102886.72;5068846;28;20198;-74
2022/04/16 11:09:53;;;;;;;15.88;7.65;;;;;;;17.30;43.28;102879.50;5072108;28;20049;-76
2022/04/16 11:12:21;;;;;;;13.80;6.72;;;;;;;17.45;42.75;102883.22;5067543;28;20152;-76
2022/04/16 11:14:54;;;;;;;11.93;5.70;;;;;;;17.54;42.46;102875.22;5067306;28;20056;-75
2022/04/16 11:17:21;;;;;;;14.30;5.50;;;;;;;17.71;42.25;102885.69;5055285;28;20139;-74
2022/04/16 11:20:05;;;;;;;16.33;7.72;;;;;;;17.98;41.17;102887.00;5064358;28;20071;-74
2022/04/16 11:22:33;;;;;;;17.48;8.40;;;;;;;18.04;41.70;102877.00;5069439;28;20056;-76
2022/04/16 11:25:04;;;;;;;16.38;8.15;;;;;;;18.28;40.94;102879.03;5066162;28;20056;-74
2022/04/16 11:35:54;;;;;;;13.07;5.90;;;;;;;18.67;35.30;102879.91;5057763;28;20135;-75
2022/04/16 11:38:29;;;;;;;13.73;6.32;;;;;;;18.67;36.32;102879.09;5063967;28;20045;-74